Time;durP1;ratioP1;P1;durP2;ratioP2;P2;SDS_P1;SDS_P2;PMS_P1;PMS_P2;Temp;Humidity;BMP_temperature;BMP_pressure;BME280_temperature;BME280_humidity;BME280_pressure;Samples;Min_cycle;Max_cycle;Signal;HPM_P1;HPM_P2
2021/11/20 00:01:32;;;;;;;26.40;16.00;;;6.70;99.90;;;;;;4976227;28;20424;-84
2021/11/20 00:03:58;;;;;;;21.38;15.35;;;6.70;99.90;;;;;;4974210;28;20019;-84
2021/11/20 00:06:28;;;;;;;24.48;15.95;;;6.70;99.90;;;;;;4972938;28;20434;-84
2021/11/20 00:08:55;;;;;;;25.05;16.45;;;6.60;99.90;;;;;;4973407;28;20166;-84
2021/11/20 00:11:25;;;;;;;43.55;23.05;;;6.60;99.90;;;;;;4974284;28;20129;-84
2021/11/20 00:13:52;;;;;;;40.05;20.88;;;6.60;99.90;;;;;;4976243;28;20329;-84
2021/11/20 00:16:22;;;;;;;29.48;17.75;;;6.60;99.90;;;;;;4974298;28;20039;-84
2021/11/20 00:18:48;;;;;;;25.33;15.93;;;6.60;99.90;;;;;;4975302;28;20095;-83
2021/11/20 00:21:44;;;;;;;29.38;17.55;;;6.60;99.90;;;;;;4975811;28;20030;-83
2021/11/20 00:24:41;;;;;;;33.60;18.00;;;6.60;99.90;;;;;;4973531;28;20034;-84
2021/11/20 00:27:16;;;;;;;29.50;16.70;;;6.60;99.90;;;;;;4958370;28;20067;-83
2021/11/20 00:29:47;;;;;;;28.27;17.10;;;6.50;99.90;;;;;;4973066;28;20472;-83
2021/11/20 00:32:17;;;;;;;58.08;28.65;;;6.50;99.90;;;;;;4973440;28;20034;-84
2021/11/20 00:34:44;;;;;;;56.58;29.58;;;6.50;99.90;;;;;;4974668;28;20022;-84
2021/11/20 00:37:10;;;;;;;50.08;27.65;;;6.50;99.90;;;;;;4973397;28;20391;-84
2021/11/20 00:39:37;;;;;;;58.90;32.30;;;6.50;99.90;;;;;;4976239;28;20026;-84
2021/11/20 00:42:05;;;;;;;43.95;26.35;;;6.40;99.90;;;;;;4974790;28;20058;-84
2021/11/20 00:44:31;;;;;;;38.22;22.08;;;6.40;99.90;;;;;;4972833;28;20384;-84
2021/11/20 00:46:57;;;;;;;26.48;17.50;;;6.40;99.90;;;;;;4972863;28;20062;-84
2021/11/20 00:49:23;;;;;;;32.05;21.00;;;6.40;99.90;;;;;;4972857;28;20058;-84
2021/11/20 00:51:50;;;;;;;35.22;22.52;;;6.40;99.90;;;;;;4973739;28;20046;-84
2021/11/20 00:54:17;;;;;;;32.85;20.10;;;6.40;99.90;;;;;;4973690;28;20022;-84
2021/11/20 00:56:44;;;;;;;26.20;17.10;;;6.30;99.90;;;;;;4973886;28;20051;-84
2021/11/20 00:59:11;;;;;;;25.40;16.63;;;6.40;99.90;;;;;;4972808;28;20018;-83
2021/11/20 01:01:58;;;;;;;27.30;17.15;;;6.30;99.90;;;;;;4972880;28;20559;-84
2021/11/20 01:04:26;;;;;;;26.83;17.42;;;6.20;99.90;;;;;;4973080;28;20205;-84
2021/11/20 01:06:53;;;;;;;26.55;16.98;;;6.20;99.90;;;;;;4972496;28;20023;-84
2021/11/20 01:09:24;;;;;;;22.90;16.45;;;6.10;99.90;;;;;;4974672;28;20094;-84
2021/11/20 01:11:54;;;;;;;25.27;17.02;;;6.10;99.90;;;;;;4974453;28;20034;-83
2021/11/20 01:14:25;;;;;;;28.13;18.83;;;6.10;99.90;;;;;;4973161;28;20512;-84
2021/11/20 01:16:52;;;;;;;31.50;20.38;;;6.10;99.90;;;;;;4972442;28;20154;-84
2021/11/20 01:19:19;;;;;;;28.15;19.13;;;6.10;99.90;;;;;;4974487;28;20035;-84
2021/11/20 01:21:47;;;;;;;31.80;19.35;;;6.10;99.90;;;;;;4973775;28;20031;-83
2021/11/20 01:24:13;;;;;;;30.35;19.60;;;6.00;99.90;;;;;;4974355;28;20118;-83
2021/11/20 01:26:39;;;;;;;29.90;19.48;;;6.00;99.90;;;;;;4972104;28;20105;-84
2021/11/20 01:29:07;;;;;;;29.63;18.45;;;6.00;99.90;;;;;;4974265;28;20042;-84
2021/11/20 01:31:37;;;;;;;24.90;17.20;;;6.00;99.90;;;;;;4975705;28;20066;-84
2021/11/20 01:34:04;;;;;;;30.88;18.17;;;6.00;99.90;;;;;;4977933;28;20066;-84
2021/11/20 01:36:32;;;;;;;31.40;18.83;;;5.90;99.90;;;;;;4972786;28;20030;-83
2021/11/20 01:39:02;;;;;;;28.20;17.92;;;5.90;99.90;;;;;;4972352;28;20023;-84
2021/11/20 01:41:29;;;;;;;25.95;17.73;;;6.00;99.90;;;;;;4972321;28;20023;-84
2021/11/20 01:44:05;;;;;;;25.52;17.73;;;6.00;99.90;;;;;;4973319;28;20027;-84
2021/11/20 01:46:32;;;;;;;26.67;16.77;;;5.90;99.90;;;;;;4977653;28;20054;-84
2021/11/20 01:49:15;;;;;;;24.23;17.10;;;5.90;99.90;;;;;;4973844;28;20023;-83
2021/11/20 01:51:55;;;;;;;26.42;17.40;;;5.90;99.90;;;;;;4976666;28;20471;-84
2021/11/20 01:54:53;;;;;;;28.55;17.50;;;5.90;99.90;;;;;;4974859;28;20142;-84
2021/11/20 01:57:24;;;;;;;24.40;16.55;;;5.90;99.90;;;;;;4975932;28;20203;-83
2021/11/20 01:59:56;;;;;;;24.40;16.90;;;5.80;99.90;;;;;;4971691;28;20391;-83
2021/11/20 02:02:35;;;;;;;24.75;17.83;;;5.80;99.90;;;;;;4971516;28;20022;-84
2021/11/20 02:05:11;;;;;;;25.95;18.17;;;5.80;99.90;;;;;;4973097;28;20030;-84
2021/11/20 02:07:45;;;;;;;29.90;18.98;;;5.80;99.90;;;;;;4972950;28;20031;-84
2021/11/20 02:10:23;;;;;;;28.20;18.60;;;5.70;99.90;;;;;;4971677;28;20522;-84
2021/11/20 02:12:55;;;;;;;26.05;17.55;;;5.80;99.90;;;;;;4971438;28;20396;-84
2021/11/20 02:15:36;;;;;;;29.77;18.10;;;5.80;99.90;;;;;;4977072;28;20033;-84
2021/11/20 02:18:04;;;;;;;28.75;18.40;;;5.70;99.90;;;;;;4978322;28;20029;-84
2021/11/20 02:21:10;;;;;;;26.17;17.45;;;5.60;99.90;;;;;;4970014;28;20415;-83
2021/11/20 02:23:36;;;;;;;26.98;17.15;;;5.60;99.90;;;;;;4962242;28;20042;-83
2021/11/20 02:26:03;;;;;;;25.83;16.85;;;5.60;99.90;;;;;;4973003;28;20026;-84
2021/11/20 02:28:30;;;;;;;20.52;15.18;;;5.60;99.90;;;;;;4978116;28;20127;-84
2021/11/20 02:30:56;;;;;;;22.13;15.52;;;5.60;99.90;;;;;;4973141;28;20035;-83
2021/11/20 02:33:35;;;;;;;25.02;16.33;;;5.60;99.90;;;;;;4971649;28;20039;-84
2021/11/20 02:36:13;;;;;;;23.52;16.48;;;5.60;99.90;;;;;;4974840;28;20031;-84
2021/11/20 02:38:48;;;;;;;25.52;16.50;;;5.60;99.90;;;;;;4973066;28;20085;-84
2021/11/20 02:41:16;;;;;;;23.33;15.95;;;5.50;99.90;;;;;;4977819;28;20030;-84
2021/11/20 02:43:46;;;;;;;26.08;18.08;;;5.50;99.90;;;;;;4971678;28;20046;-84
2021/11/20 02:46:14;;;;;;;31.30;18.23;;;5.40;99.90;;;;;;4971497;28;20023;-84
2021/11/20 02:48:40;;;;;;;31.15;17.92;;;5.40;99.90;;;;;;4974497;28;20036;-84
2021/11/20 02:51:19;;;;;;;27.05;18.13;;;5.40;99.90;;;;;;4978029;28;20038;-84
2021/11/20 02:53:55;;;;;;;31.02;17.58;;;5.40;99.90;;;;;;4971352;28;20027;-84
2021/11/20 02:56:24;;;;;;;27.05;17.52;;;5.40;99.90;;;;;;4970966;28;20104;-84
2021/11/20 02:58:51;;;;;;;31.48;18.83;;;5.40;99.90;;;;;;4971091;28;20043;-84
2021/11/20 03:01:21;;;;;;;25.67;17.38;;;5.40;99.90;;;;;;4972181;28;20023;-84
2021/11/20 03:03:47;;;;;;;29.30;17.63;;;5.40;99.90;;;;;;4971470;28;20042;-84
2021/11/20 03:06:14;;;;;;;26.65;18.05;;;5.40;99.90;;;;;;4974909;28;20223;-84
2021/11/20 03:08:40;;;;;;;24.35;17.33;;;5.40;99.90;;;;;;4975131;28;20031;-84
2021/11/20 03:11:06;;;;;;;24.40;16.67;;;5.30;99.90;;;;;;4972924;28;20049;-84
2021/11/20 03:13:32;;;;;;;26.83;17.60;;;5.30;99.90;;;;;;4973797;28;20246;-84
2021/11/20 03:15:58;;;;;;;24.65;16.95;;;5.30;99.90;;;;;;4969588;28;20034;-84
2021/11/20 03:18:24;;;;;;;26.00;16.42;;;5.30;99.90;;;;;;4977464;28;20218;-83
2021/11/20 03:20:50;;;;;;;25.77;16.00;;;5.30;99.90;;;;;;4974676;28;20030;-84
2021/11/20 03:23:26;;;;;;;25.20;17.25;;;5.30;99.90;;;;;;4975153;28;20057;-84
2021/11/20 03:25:51;;;;;;;24.13;16.38;;;5.30;99.90;;;;;;4974046;28;20510;-84
2021/11/20 03:28:17;;;;;;;24.50;16.92;;;5.30;99.90;;;;;;4976256;28;20027;-84
2021/11/20 03:30:44;;;;;;;23.90;16.08;;;5.40;99.90;;;;;;4974041;28;20029;-84
2021/11/20 03:33:10;;;;;;;25.05;16.70;;;5.30;99.90;;;;;;4974311;28;20047;-84
2021/11/20 03:35:37;;;;;;;23.20;16.73;;;5.30;99.90;;;;;;4977275;28;20019;-83
2021/11/20 03:38:03;;;;;;;22.58;16.13;;;5.30;99.90;;;;;;4977325;28;20035;-83
2021/11/20 03:40:29;;;;;;;23.55;15.43;;;5.30;99.90;;;;;;4976278;28;20054;-84
2021/11/20 03:42:55;;;;;;;23.30;16.35;;;5.20;99.90;;;;;;4978343;28;20436;-84
2021/11/20 03:45:24;;;;;;;23.77;16.15;;;5.20;99.90;;;;;;4977819;28;20074;-83
2021/11/20 03:47:50;;;;;;;20.73;15.25;;;5.20;99.90;;;;;;4973970;28;20035;-83
2021/11/20 03:50:17;;;;;;;21.95;15.32;;;5.20;99.90;;;;;;4977271;28;20027;-83
2021/11/20 03:52:44;;;;;;;25.80;14.90;;;5.20;99.90;;;;;;4976633;28;20080;-83
2021/11/20 03:55:20;;;;;;;22.17;15.23;;;5.20;99.90;;;;;;4972580;28;20101;-84
2021/11/20 03:57:46;;;;;;;24.80;15.85;;;5.20;99.90;;;;;;4972452;28;20482;-84
2021/11/20 04:00:16;;;;;;;23.13;14.85;;;5.20;99.90;;;;;;4976133;28;20019;-84
2021/11/20 04:02:44;;;;;;;20.25;14.38;;;5.20;99.90;;;;;;4975183;28;20042;-84
2021/11/20 04:05:10;;;;;;;22.70;15.13;;;5.20;99.90;;;;;;4973960;28;20019;-84
2021/11/20 04:07:37;;;;;;;22.85;16.23;;;5.10;99.90;;;;;;4972021;28;20031;-84
2021/11/20 04:10:05;;;;;;;21.05;15.40;;;5.20;99.90;;;;;;4975419;28;20464;-84
2021/11/20 04:12:31;;;;;;;22.60;15.82;;;5.10;99.90;;;;;;4975260;28;20094;-84
2021/11/20 04:14:56;;;;;;;19.63;14.77;;;5.10;99.90;;;;;;4972231;28;20022;-84
2021/11/20 04:17:22;;;;;;;22.75;15.68;;;5.10;99.90;;;;;;4976282;28;20109;-83
2021/11/20 04:19:48;;;;;;;25.35;16.08;;;5.00;99.90;;;;;;4973320;28;20045;-84
2021/11/20 04:22:13;;;;;;;23.02;14.57;;;5.00;99.90;;;;;;4976698;28;20056;-84
2021/11/20 04:24:39;;;;;;;21.92;15.18;;;5.00;99.90;;;;;;4975285;28;20031;-84
2021/11/20 04:27:06;;;;;;;21.13;15.23;;;5.00;99.90;;;;;;4974624;28;20026;-84
2021/11/20 04:29:32;;;;;;;21.95;15.45;;;5.00;99.90;;;;;;4971838;28;20023;-83
2021/11/20 04:31:58;;;;;;;23.92;15.73;;;5.00;99.90;;;;;;4972802;28;20042;-84
2021/11/20 04:34:23;;;;;;;21.10;14.82;;;5.00;99.90;;;;;;4973080;28;20019;-84
2021/11/20 04:36:49;;;;;;;22.67;14.68;;;4.90;99.90;;;;;;4975472;28;20041;-84
2021/11/20 04:39:15;;;;;;;24.50;15.00;;;4.90;99.90;;;;;;4973370;28;20034;-84
2021/11/20 04:41:41;;;;;;;25.55;15.63;;;4.90;99.90;;;;;;4975951;28;20060;-84
2021/11/20 04:44:07;;;;;;;23.25;15.80;;;4.90;99.90;;;;;;4973833;28;20037;-84
2021/11/20 04:46:33;;;;;;;19.20;14.13;;;5.00;99.90;;;;;;4973659;28;20027;-84
2021/11/20 04:48:59;;;;;;;20.90;14.43;;;5.00;99.90;;;;;;4972644;28;20509;-84
2021/11/20 04:51:26;;;;;;;22.20;14.35;;;5.00;99.90;;;;;;4972494;28;20471;-84
2021/11/20 04:53:52;;;;;;;20.17;14.38;;;4.90;99.90;;;;;;4972400;28;20312;-84
2021/11/20 04:56:21;;;;;;;20.98;14.40;;;4.90;99.90;;;;;;4972284;28;20046;-84
2021/11/20 04:58:47;;;;;;;21.30;14.43;;;4.90;99.90;;;;;;4974168;28;20475;-84
2021/11/20 05:01:14;;;;;;;20.60;15.07;;;4.90;99.90;;;;;;4972552;28;20062;-83
2021/11/20 05:03:41;;;;;;;21.58;14.73;;;4.80;99.90;;;;;;4973751;28;20030;-84
2021/11/20 05:06:07;;;;;;;20.33;14.18;;;4.80;99.90;;;;;;4972686;28;20332;-84
2021/11/20 05:08:33;;;;;;;20.40;14.35;;;4.90;99.90;;;;;;4972530;28;20121;-84
2021/11/20 05:10:59;;;;;;;22.85;15.40;;;4.90;99.90;;;;;;4971175;28;20117;-84
2021/11/20 05:13:27;;;;;;;24.00;16.70;;;4.80;99.90;;;;;;4975504;28;20113;-84
2021/11/20 05:15:55;;;;;;;23.33;15.07;;;4.90;99.90;;;;;;4974707;28;20095;-84
2021/11/20 05:18:21;;;;;;;25.35;15.93;;;4.90;99.90;;;;;;4972325;28;20217;-84
2021/11/20 05:20:47;;;;;;;22.05;14.23;;;4.90;99.90;;;;;;4974807;28;20165;-84
2021/11/20 05:23:14;;;;;;;23.40;15.75;;;4.90;99.90;;;;;;4970830;28;20487;-84
2021/11/20 05:25:40;;;;;;;20.98;14.15;;;4.90;99.90;;;;;;4972069;28;20027;-84
2021/11/20 05:28:07;;;;;;;21.15;14.75;;;4.90;99.90;;;;;;4972053;28;20128;-83
2021/11/20 05:30:37;;;;;;;22.50;15.60;;;4.90;99.90;;;;;;4972174;28;20093;-84
2021/11/20 05:33:16;;;;;;;20.50;14.65;;;4.80;99.90;;;;;;4971879;28;20487;-84
2021/11/20 05:35:42;;;;;;;25.70;15.75;;;4.80;99.90;;;;;;4978776;28;20023;-84
2021/11/20 05:38:09;;;;;;;24.00;15.70;;;4.80;99.90;;;;;;4971782;28;20566;-83
2021/11/20 05:40:37;;;;;;;21.98;15.57;;;4.80;99.90;;;;;;4971209;28;20049;-83
2021/11/20 05:43:05;;;;;;;22.50;15.73;;;4.80;99.90;;;;;;4971718;28;20025;-84
2021/11/20 05:45:35;;;;;;;21.05;14.73;;;4.80;99.90;;;;;;4972675;28;20035;-83
2021/11/20 05:48:01;;;;;;;21.65;14.55;;;4.80;99.90;;;;;;4972360;28;20030;-84
2021/11/20 05:50:28;;;;;;;23.50;15.45;;;4.80;99.90;;;;;;4978258;28;20217;-84
2021/11/20 05:52:56;;;;;;;22.30;15.02;;;4.70;99.90;;;;;;4970163;28;20031;-84
2021/11/20 05:55:26;;;;;;;22.80;15.30;;;4.70;99.90;;;;;;4973558;28;20051;-84
2021/11/20 05:57:51;;;;;;;25.85;16.02;;;4.70;99.90;;;;;;4971725;28;20082;-84
2021/11/20 06:00:22;;;;;;;22.60;15.68;;;4.70;99.90;;;;;;4972348;28;20476;-84
2021/11/20 06:02:48;;;;;;;22.45;14.63;;;4.70;99.90;;;;;;4975760;28;20031;-84
2021/11/20 06:05:14;;;;;;;21.15;14.70;;;4.70;99.90;;;;;;4971994;28;20023;-84
2021/11/20 06:07:40;;;;;;;21.35;14.65;;;4.70;99.90;;;;;;4971694;28;20026;-84
2021/11/20 06:10:06;;;;;;;22.70;15.10;;;4.70;99.90;;;;;;4971426;28;20034;-84
2021/11/20 06:12:32;;;;;;;22.27;15.07;;;4.60;99.90;;;;;;4971130;28;20499;-84
2021/11/20 06:14:58;;;;;;;24.10;15.57;;;4.60;99.90;;;;;;4970778;28;20027;-83
2021/11/20 06:17:23;;;;;;;23.52;15.38;;;4.60;99.90;;;;;;4974406;28;20025;-83
2021/11/20 06:19:49;;;;;;;21.65;15.25;;;4.60;99.90;;;;;;4970785;28;20023;-84
2021/11/20 06:22:15;;;;;;;22.48;15.27;;;4.60;99.90;;;;;;4976278;28;20035;-84
2021/11/20 06:24:41;;;;;;;21.48;15.45;;;4.50;99.90;;;;;;4974033;28;20038;-83
2021/11/20 06:27:07;;;;;;;20.90;14.23;;;4.50;99.90;;;;;;4973658;28;20031;-84
2021/11/20 06:29:32;;;;;;;19.85;13.85;;;4.40;99.90;;;;;;4982157;28;20041;-83
2021/11/20 06:31:58;;;;;;;22.15;14.90;;;4.30;99.90;;;;;;4982043;28;20034;-84
2021/11/20 06:34:24;;;;;;;19.98;14.43;;;4.30;99.90;;;;;;4982164;28;20034;-84
2021/11/20 06:36:49;;;;;;;23.63;14.50;;;4.20;99.90;;;;;;4982177;28;20023;-83
2021/11/20 06:39:16;;;;;;;23.83;13.57;;;4.20;99.90;;;;;;4982016;28;20069;-84
2021/11/20 06:41:43;;;;;;;21.27;14.45;;;4.20;99.90;;;;;;4981966;28;20050;-84
2021/11/20 06:44:08;;;;;;;19.95;13.95;;;4.10;99.90;;;;;;4981986;28;20023;-83
2021/11/20 06:46:35;;;;;;;21.92;14.65;;;4.00;99.90;;;;;;4970605;28;20641;-84
2021/11/20 06:49:01;;;;;;;22.38;14.95;;;4.10;99.90;;;;;;4975646;28;20373;-84
2021/11/20 06:51:27;;;;;;;22.92;15.00;;;4.00;99.90;;;;;;4983033;28;20026;-84
2021/11/20 06:53:53;;;;;;;19.42;13.60;;;4.10;99.90;;;;;;4983270;28;20034;-84
2021/11/20 06:56:30;;;;;;;23.27;13.88;;;4.00;99.90;;;;;;4975266;28;20047;-84
2021/11/20 06:59:13;;;;;;;16.98;13.05;;;4.00;99.90;;;;;;4973634;28;20031;-84
2021/11/20 07:01:39;;;;;;;17.13;13.48;;;4.00;99.90;;;;;;4973505;28;20027;-84
2021/11/20 07:04:11;;;;;;;16.10;11.75;;;4.00;99.90;;;;;;4976804;28;20051;-84
2021/11/20 07:06:53;;;;;;;15.98;12.35;;;4.00;99.90;;;;;;4978355;28;20219;-84
2021/11/20 07:09:19;;;;;;;15.27;11.57;;;4.00;99.90;;;;;;4974144;28;20047;-84
2021/11/20 07:11:45;;;;;;;16.38;11.60;;;3.90;99.90;;;;;;4977218;28;20034;-84
2021/11/20 07:14:11;;;;;;;17.05;11.70;;;3.90;99.90;;;;;;4977583;28;20117;-85
2021/11/20 07:16:36;;;;;;;16.60;12.63;;;4.00;99.90;;;;;;4975911;28;20054;-84
2021/11/20 07:19:02;;;;;;;19.38;12.80;;;3.90;99.90;;;;;;4977410;28;20044;-84
2021/11/20 07:21:29;;;;;;;18.17;12.88;;;3.90;99.90;;;;;;4978229;28;20026;-84
2021/11/20 07:23:57;;;;;;;17.67;11.90;;;3.90;99.90;;;;;;4976515;28;20039;-84
2021/11/20 07:26:22;;;;;;;16.60;12.32;;;3.90;99.90;;;;;;4974405;28;20403;-84
2021/11/20 07:28:49;;;;;;;16.10;11.82;;;3.90;99.90;;;;;;4966720;28;20022;-84
2021/11/20 07:31:15;;;;;;;16.73;12.48;;;3.90;99.90;;;;;;4974402;28;20027;-84
2021/11/20 07:33:41;;;;;;;17.60;12.88;;;3.90;99.90;;;;;;4973107;28;20033;-84
2021/11/20 07:36:08;;;;;;;18.55;12.25;;;3.90;99.90;;;;;;4974347;28;20023;-84
2021/11/20 07:38:39;;;;;;;15.02;11.48;;;3.90;99.90;;;;;;4972857;28;20046;-84
2021/11/20 07:41:06;;;;;;;17.55;11.25;;;3.90;99.90;;;;;;4972541;28;20110;-85
2021/11/20 07:43:31;;;;;;;16.15;11.75;;;4.00;99.90;;;;;;4974312;28;20117;-84
2021/11/20 07:45:57;;;;;;;25.55;12.32;;;4.00;99.90;;;;;;4974016;28;20524;-84
2021/11/20 07:48:26;;;;;;;19.95;12.00;;;4.00;99.90;;;;;;4973787;28;20033;-84
2021/11/20 07:50:53;;;;;;;20.42;12.40;;;4.00;99.90;;;;;;4973721;28;20082;-84
2021/11/20 07:53:20;;;;;;;22.95;14.82;;;4.10;99.90;;;;;;4973623;28;20503;-84
2021/11/20 07:55:46;;;;;;;29.65;14.07;;;4.10;99.90;;;;;;4972454;28;20050;-86
2021/11/20 07:58:13;;;;;;;28.95;14.95;;;4.20;99.90;;;;;;4973689;28;20031;-84
2021/11/20 08:00:39;;;;;;;18.98;12.65;;;4.20;99.90;;;;;;4972343;28;20492;-85
2021/11/20 08:03:06;;;;;;;19.42;12.18;;;4.30;99.90;;;;;;4973166;28;20486;-85
2021/11/20 08:05:32;;;;;;;21.02;12.00;;;4.30;99.90;;;;;;4973308;28;20447;-85
2021/11/20 08:07:58;;;;;;;15.52;12.00;;;4.40;99.90;;;;;;4973389;28;20034;-84
2021/11/20 08:10:27;;;;;;;17.58;11.23;;;4.40;99.90;;;;;;4973400;28;20023;-84
2021/11/20 08:12:53;;;;;;;15.38;11.25;;;4.50;99.90;;;;;;4973482;28;20034;-84
2021/11/20 08:15:19;;;;;;;16.33;11.23;;;4.50;99.90;;;;;;4973624;28;20038;-86
2021/11/20 08:17:45;;;;;;;19.08;12.00;;;4.50;99.90;;;;;;4972292;28;20031;-86
2021/11/20 08:20:14;;;;;;;17.52;11.73;;;4.60;99.90;;;;;;4977826;28;20188;-86
2021/11/20 08:22:40;;;;;;;16.25;11.13;;;4.70;99.90;;;;;;4975357;28;20314;-83
2021/11/20 08:25:10;;;;;;;19.80;10.77;;;4.70;99.90;;;;;;4983870;28;20054;-84
2021/11/20 08:27:36;;;;;;;14.52;11.15;;;4.70;99.90;;;;;;4978520;28;20034;-83
2021/11/20 08:30:04;;;;;;;14.93;10.55;;;4.70;99.90;;;;;;4972919;28;20034;-84
2021/11/20 08:32:30;;;;;;;14.27;10.90;;;4.80;99.90;;;;;;4972899;28;20035;-85
2021/11/20 08:34:58;;;;;;;13.20;10.40;;;4.80;99.90;;;;;;4972930;28;20026;-84
2021/11/20 08:37:25;;;;;;;15.18;10.02;;;4.80;99.90;;;;;;4970964;28;20102;-85
2021/11/20 08:39:53;;;;;;;13.40;10.57;;;4.80;99.90;;;;;;4970401;28;20486;-85
2021/11/20 08:42:19;;;;;;;18.05;10.00;;;5.00;99.90;;;;;;4972869;28;20023;-85
2021/11/20 08:44:45;;;;;;;15.30;11.48;;;5.00;99.90;;;;;;4972600;28;20031;-85
2021/11/20 08:47:11;;;;;;;16.20;11.23;;;5.00;99.90;;;;;;4972649;28;20085;-84
2021/11/20 08:49:37;;;;;;;14.77;11.65;;;5.10;99.90;;;;;;4972922;28;20145;-84
2021/11/20 08:52:04;;;;;;;16.45;11.45;;;5.20;99.90;;;;;;4972546;28;20037;-85
2021/11/20 08:54:30;;;;;;;13.88;10.98;;;5.20;99.90;;;;;;4972718;28;20373;-84
2021/11/20 08:56:57;;;;;;;14.73;10.40;;;5.20;99.90;;;;;;4972580;28;20047;-85
2021/11/20 08:59:29;;;;;;;15.45;11.13;;;5.40;99.90;;;;;;4971221;28;20022;-85
2021/11/20 09:02:11;;;;;;;15.20;11.63;;;5.50;99.90;;;;;;4972329;28;20026;-83
2021/11/20 09:05:14;;;;;;;14.50;11.30;;;5.50;99.90;;;;;;4972756;28;20105;-83
2021/11/20 09:07:51;;;;;;;14.30;11.32;;;5.60;99.90;;;;;;4959170;28;20530;-83
2021/11/20 09:10:30;;;;;;;13.57;10.77;;;5.70;99.90;;;;;;4972244;28;20518;-83
2021/11/20 09:13:07;;;;;;;14.73;11.25;;;5.80;99.90;;;;;;4972140;28;20048;-83
2021/11/20 09:15:50;;;;;;;16.98;12.30;;;5.80;99.90;;;;;;4971219;28;20018;-83
2021/11/20 09:18:16;;;;;;;14.80;11.43;;;5.90;99.90;;;;;;4972028;28;20031;-83
2021/11/20 09:20:42;;;;;;;12.82;11.07;;;5.90;99.90;;;;;;4970491;28;20027;-83
2021/11/20 09:23:08;;;;;;;14.27;11.05;;;6.00;99.90;;;;;;4971701;28;20034;-84
2021/11/20 09:25:36;;;;;;;12.85;10.30;;;6.20;99.90;;;;;;4970409;28;20415;-83
2021/11/20 09:28:05;;;;;;;15.40;11.85;;;6.40;99.90;;;;;;4970551;28;20034;-83
2021/11/20 09:30:34;;;;;;;14.98;11.73;;;6.40;99.90;;;;;;4971915;28;20023;-83
2021/11/20 09:33:00;;;;;;;14.48;11.35;;;6.50;99.90;;;;;;4970344;28;20034;-84
2021/11/20 09:35:26;;;;;;;14.85;11.80;;;6.70;99.90;;;;;;4970409;28;20038;-83
2021/11/20 09:37:52;;;;;;;14.93;11.40;;;6.80;99.90;;;;;;4971501;28;20027;-83
2021/11/20 09:40:19;;;;;;;14.07;11.57;;;6.90;99.90;;;;;;4971593;28;20023;-83
2021/11/20 09:42:47;;;;;;;14.30;11.70;;;7.00;99.90;;;;;;4971718;28;20484;-83
2021/11/20 09:45:22;;;;;;;15.23;12.43;;;6.90;99.90;;;;;;4971579;28;20023;-83
2021/11/20 09:47:58;;;;;;;15.30;12.80;;;7.00;99.90;;;;;;4971556;28;20030;-83
2021/11/20 09:50:44;;;;;;;15.32;11.90;;;7.10;99.90;;;;;;4971555;28;20031;-83
2021/11/20 09:53:11;;;;;;;15.52;12.65;;;7.20;99.90;;;;;;4971353;28;20118;-83
2021/11/20 09:55:44;;;;;;;14.45;11.52;;;7.30;99.90;;;;;;4971123;28;20054;-83
2021/11/20 09:58:39;;;;;;;14.23;11.02;;;7.40;99.90;;;;;;4971241;28;20098;-83
2021/11/20 10:01:19;;;;;;;;;;;7.40;99.90;;;;;;4967935;28;20495;-83
2021/11/20 10:04:17;;;;;;;19.58;11.18;;;7.30;99.90;;;;;;4971668;28;20290;-83
2021/11/20 10:06:46;;;;;;;16.90;12.73;;;7.40;99.90;;;;;;4970513;28;20047;-83
2021/11/20 10:09:21;;;;;;;16.25;12.30;;;7.40;99.90;;;;;;4972984;28;20441;-83
2021/11/20 10:12:00;;;;;;;15.43;12.40;;;7.20;99.90;;;;;;4971093;28;20035;-83
2021/11/20 10:14:37;;;;;;;15.70;12.88;;;7.30;99.90;;;;;;4970241;28;20126;-83
2021/11/20 10:17:49;;;;;;;17.70;12.30;;;7.30;99.90;;;;;;4971119;28;20566;-83
2021/11/20 10:20:33;;;;;;;15.93;11.88;;;7.50;99.90;;;;;;4962371;28;20434;-83
2021/11/20 10:23:21;;;;;;;15.67;12.53;;;7.70;99.90;;;;;;4970834;28;20027;-82
2021/11/20 10:25:50;;;;;;;16.17;11.98;;;7.80;99.90;;;;;;4970328;28;20034;-83
2021/11/20 10:28:25;;;;;;;16.40;12.93;;;7.80;99.90;;;;;;4975396;28;20187;-84
2021/11/20 10:31:14;;;;;;;17.98;13.85;;;7.90;99.90;;;;;;4975294;28;20042;-83
2021/11/20 10:33:50;;;;;;;18.33;14.25;;;8.00;99.90;;;;;;4975007;28;20046;-84
2021/11/20 10:36:24;;;;;;;19.17;13.63;;;8.10;99.90;;;;;;4974672;28;20235;-84
2021/11/20 10:39:00;;;;;;;17.77;14.45;;;8.30;99.90;;;;;;4974909;28;20041;-84
2021/11/20 10:41:36;;;;;;;19.88;15.07;;;8.30;99.90;;;;;;4976279;28;20483;-84
2021/11/20 10:44:10;;;;;;;21.73;14.75;;;8.30;99.90;;;;;;4975290;28;20022;-84
2021/11/20 10:46:46;;;;;;;24.85;15.52;;;8.30;99.90;;;;;;4974979;28;20033;-84
2021/11/20 10:49:24;;;;;;;21.08;15.70;;;8.30;99.90;;;;;;4974155;28;20031;-82
2021/11/20 10:52:15;;;;;;;19.60;15.48;;;8.40;99.90;;;;;;4974733;28;20166;-82
2021/11/20 10:54:54;;;;;;;20.58;14.00;;;8.50;99.90;;;;;;4937647;28;20034;-82
2021/11/20 10:57:41;;;;;;;16.17;12.68;;;8.60;99.90;;;;;;4973415;28;20407;-81
2021/11/20 11:00:20;;;;;;;16.85;13.20;;;8.60;99.90;;;;;;4973282;28;20082;-81
2021/11/20 11:02:48;;;;;;;14.52;12.35;;;8.60;99.90;;;;;;4974769;28;20027;-81
2021/11/20 11:05:51;;;;;;;15.70;12.52;;;8.60;99.90;;;;;;4975635;28;20241;-82
2021/11/20 11:08:45;;;;;;;15.43;12.10;;;8.60;99.90;;;;;;4973819;28;20610;-81
2021/11/20 11:11:29;;;;;;;17.08;13.48;;;8.80;99.90;;;;;;4973134;28;20041;-81
2021/11/20 11:14:10;;;;;;;17.08;13.13;;;8.80;99.90;;;;;;4974239;28;20376;-82
2021/11/20 11:16:41;;;;;;;21.50;14.95;;;8.90;99.90;;;;;;4975024;28;20034;-82
2021/11/20 11:19:13;;;;;;;18.40;13.65;;;9.00;99.90;;;;;;4974235;28;20046;-82
2021/11/20 11:21:56;;;;;;;13.73;11.75;;;9.10;99.90;;;;;;4974370;28;20484;-82
2021/11/20 11:24:47;;;;;;;17.20;13.35;;;9.20;99.90;;;;;;4974376;28;20023;-84
2021/11/20 11:27:30;;;;;;;15.68;12.50;;;9.10;99.90;;;;;;4973925;28;20113;-83
2021/11/20 11:30:09;;;;;;;14.10;11.67;;;9.10;99.90;;;;;;4973971;28;20105;-84
2021/11/20 11:32:38;;;;;;;14.82;12.32;;;9.20;99.90;;;;;;4972607;28;20050;-83
2021/11/20 11:35:09;;;;;;;13.95;11.82;;;9.30;99.90;;;;;;4973501;28;20027;-83
2021/11/20 11:38:19;;;;;;;16.15;11.50;;;9.30;99.90;;;;;;4972229;28;20027;-83
2021/11/20 11:41:03;;;;;;;17.27;12.90;;;9.50;99.90;;;;;;4937786;28;20035;-83
2021/11/20 11:43:35;;;;;;;12.43;11.10;;;9.60;99.90;;;;;;4972192;28;20030;-83
2021/11/20 11:46:00;;;;;;;13.77;12.02;;;9.70;99.90;;;;;;4973736;28;20021;-83
2021/11/20 11:48:38;;;;;;;12.70;11.40;;;9.80;99.90;;;;;;4973522;28;20031;-83
2021/11/20 11:51:43;;;;;;;14.07;11.80;;;9.90;99.90;;;;;;4972274;28;20383;-83
2021/11/20 11:54:11;;;;;;;14.25;11.13;;;10.00;99.90;;;;;;4973763;28;20109;-84
2021/11/20 11:56:58;;;;;;;11.95;10.38;;;10.10;99.90;;;;;;4972024;28;20057;-83
2021/11/20 11:59:34;;;;;;;13.40;10.75;;;10.20;99.90;;;;;;4973630;28;20019;-83
2021/11/20 12:02:11;;;;;;;14.32;12.02;;;10.30;99.90;;;;;;4973459;28;20452;-84
2021/11/20 12:04:42;;;;;;;13.05;10.95;;;10.30;99.90;;;;;;4973379;28;20150;-83
2021/11/20 12:07:26;;;;;;;14.68;11.13;;;10.30;99.90;;;;;;4972526;28;20515;-83
2021/11/20 12:10:27;;;;;;;14.77;11.85;;;10.30;99.90;;;;;;4973507;28;20031;-83
2021/11/20 12:13:10;;;;;;;15.93;11.13;;;10.40;99.90;;;;;;4973149;28;20035;-83
2021/11/20 12:15:49;;;;;;;13.88;10.95;;;10.50;99.90;;;;;;4973753;28;20109;-83
2021/11/20 12:18:39;;;;;;;14.13;11.30;;;10.60;99.90;;;;;;4971818;28;20086;-83
2021/11/20 12:21:16;;;;;;;15.32;11.15;;;10.60;99.90;;;;;;4973002;28;20022;-83
2021/11/20 12:24:09;;;;;;;14.30;11.35;;;10.70;99.90;;;;;;4972944;28;20110;-83
2021/11/20 12:26:40;;;;;;;14.13;11.65;;;10.90;99.90;;;;;;4972167;28;20225;-83
2021/11/20 12:29:43;;;;;;;13.50;11.88;;;10.90;99.90;;;;;;4983598;28;20030;-83
2021/11/20 12:32:27;;;;;;;13.32;11.27;;;11.00;99.90;;;;;;4982467;28;20031;-83
2021/11/20 12:35:10;;;;;;;15.05;12.15;;;11.10;99.90;;;;;;4983863;28;20026;-84
2021/11/20 12:37:54;;;;;;;13.90;11.68;;;11.20;99.90;;;;;;4980418;28;20490;-83
2021/11/20 12:40:53;;;;;;;13.85;11.93;;;11.20;99.90;;;;;;4970733;28;20027;-85
2021/11/20 12:43:34;;;;;;;18.83;12.93;;;11.30;99.90;;;;;;4972143;28;20037;-84
2021/11/20 12:46:03;;;;;;;14.77;11.98;;;11.30;99.90;;;;;;4970703;28;20031;-85
2021/11/20 12:48:32;;;;;;;14.80;12.60;;;11.30;99.90;;;;;;4972046;28;20424;-83
2021/11/20 12:51:23;;;;;;;15.20;12.60;;;11.40;99.90;;;;;;4971885;28;20027;-84
2021/11/20 12:54:18;;;;;;;13.70;11.95;;;11.40;99.90;;;;;;4959989;28;20615;-84
2021/11/20 12:56:46;;;;;;;18.23;13.63;;;11.50;99.90;;;;;;4971570;28;20446;-84
2021/11/20 12:59:26;;;;;;;16.52;12.18;;;11.60;99.90;;;;;;4982384;28;20191;-84